sensor_id;sensor_type;location;lat;lon;timestamp;P1;durP1;ratioP1;P2;durP2;ratioP2
13122;SDS011;6627;50.920;12.050;2023-02-28T00:01:24;7.43;;;6.67;;
13122;SDS011;6627;50.920;12.050;2023-02-28T00:03:54;7.83;;;6.73;;
13122;SDS011;6627;50.920;12.050;2023-02-28T00:06:22;10.73;;;6.67;;
13122;SDS011;6627;50.920;12.050;2023-02-28T00:08:50;8.50;;;6.57;;
13122;SDS011;6627;50.920;12.050;2023-02-28T00:11:19;6.83;;;5.67;;
13122;SDS011;6627;50.920;12.050;2023-02-28T00:13:47;8.57;;;6.40;;
13122;SDS011;6627;50.920;12.050;2023-02-28T00:16:16;8.33;;;6.40;;
13122;SDS011;6627;50.920;12.050;2023-02-28T00:18:45;8.60;;;6.60;;
13122;SDS011;6627;50.920;12.050;2023-02-28T00:21:15;8.33;;;6.33;;
13122;SDS011;6627;50.920;12.050;2023-02-28T00:23:44;8.23;;;6.27;;
13122;SDS011;6627;50.920;12.050;2023-02-28T00:26:12;9.33;;;6.67;;
13122;SDS011;6627;50.920;12.050;2023-02-28T00:28:39;12.60;;;6.97;;
13122;SDS011;6627;50.920;12.050;2023-02-28T00:31:06;8.03;;;6.83;;
13122;SDS011;6627;50.920;12.050;2023-02-28T00:33:33;9.57;;;7.07;;
13122;SDS011;6627;50.920;12.050;2023-02-28T00:36:04;8.30;;;6.60;;
13122;SDS011;6627;50.920;12.050;2023-02-28T00:38:35;11.73;;;7.00;;
13122;SDS011;6627;50.920;12.050;2023-02-28T00:41:03;10.07;;;7.30;;
13122;SDS011;6627;50.920;12.050;2023-02-28T00:43:31;9.87;;;7.30;;
13122;SDS011;6627;50.920;12.050;2023-02-28T00:46:00;7.90;;;6.97;;
13122;SDS011;6627;50.920;12.050;2023-02-28T00:48:27;11.83;;;7.87;;
13122;SDS011;6627;50.920;12.050;2023-02-28T00:50:55;9.37;;;7.70;;
13122;SDS011;6627;50.920;12.050;2023-02-28T00:53:22;9.37;;;7.37;;
13122;SDS011;6627;50.920;12.050;2023-02-28T00:55:50;9.67;;;7.70;;
13122;SDS011;6627;50.920;12.050;2023-02-28T00:58:18;9.60;;;7.43;;
13122;SDS011;6627;50.920;12.050;2023-02-28T01:00:45;11.30;;;7.17;;
13122;SDS011;6627;50.920;12.050;2023-02-28T01:03:14;9.03;;;7.17;;
13122;SDS011;6627;50.920;12.050;2023-02-28T01:05:42;8.77;;;6.80;;
13122;SDS011;6627;50.920;12.050;2023-02-28T01:08:09;7.80;;;6.50;;
13122;SDS011;6627;50.920;12.050;2023-02-28T01:10:36;11.40;;;6.93;;
13122;SDS011;6627;50.920;12.050;2023-02-28T01:13:05;11.10;;;6.90;;
13122;SDS011;6627;50.920;12.050;2023-02-28T01:15:33;9.13;;;7.20;;
13122;SDS011;6627;50.920;12.050;2023-02-28T01:18:00;11.03;;;7.03;;
13122;SDS011;6627;50.920;12.050;2023-02-28T01:20:27;10.33;;;6.77;;
13122;SDS011;6627;50.920;12.050;2023-02-28T01:22:54;11.40;;;7.43;;
13122;SDS011;6627;50.920;12.050;2023-02-28T01:25:21;10.43;;;6.80;;
13122;SDS011;6627;50.920;12.050;2023-02-28T01:27:48;13.77;;;6.63;;
13122;SDS011;6627;50.920;12.050;2023-02-28T01:30:17;11.53;;;6.70;;
13122;SDS011;6627;50.920;12.050;2023-02-28T01:32:44;10.17;;;6.77;;
13122;SDS011;6627;50.920;12.050;2023-02-28T01:35:11;9.20;;;6.63;;
13122;SDS011;6627;50.920;12.050;2023-02-28T01:37:40;8.40;;;6.50;;
13122;SDS011;6627;50.920;12.050;2023-02-28T01:40:07;9.57;;;6.17;;
13122;SDS011;6627;50.920;12.050;2023-02-28T01:42:36;7.60;;;5.97;;
13122;SDS011;6627;50.920;12.050;2023-02-28T01:45:06;8.27;;;6.20;;
13122;SDS011;6627;50.920;12.050;2023-02-28T01:47:48;10.37;;;5.77;;
13122;SDS011;6627;50.920;12.050;2023-02-28T01:50:19;11.27;;;6.53;;
13122;SDS011;6627;50.920;12.050;2023-02-28T01:52:52;7.30;;;6.33;;
13122;SDS011;6627;50.920;12.050;2023-02-28T01:55:27;9.63;;;5.93;;
13122;SDS011;6627;50.920;12.050;2023-02-28T01:57:56;7.97;;;5.70;;
13122;SDS011;6627;50.920;12.050;2023-02-28T02:00:29;8.43;;;5.97;;
13122;SDS011;6627;50.920;12.050;2023-02-28T02:02:58;6.37;;;5.57;;
13122;SDS011;6627;50.920;12.050;2023-02-28T02:05:31;6.67;;;5.40;;
13122;SDS011;6627;50.920;12.050;2023-02-28T02:08:01;6.70;;;5.03;;
13122;SDS011;6627;50.920;12.050;2023-02-28T02:10:33;9.47;;;5.27;;
13122;SDS011;6627;50.920;12.050;2023-02-28T02:13:25;6.60;;;4.87;;
13122;SDS011;6627;50.920;12.050;2023-02-28T02:16:07;6.90;;;5.50;;
13122;SDS011;6627;50.920;12.050;2023-02-28T02:18:50;7.30;;;5.30;;
13122;SDS011;6627;50.920;12.050;2023-02-28T02:21:33;6.13;;;4.70;;
13122;SDS011;6627;50.920;12.050;2023-02-28T02:27:46;6.70;;;4.83;;
13122;SDS011;6627;50.920;12.050;2023-02-28T02:31:03;5.63;;;4.87;;
13122;SDS011;6627;50.920;12.050;2023-02-28T02:34:04;6.90;;;5.37;;
13122;SDS011;6627;50.920;12.050;2023-02-28T02:36:57;8.17;;;5.40;;
13122;SDS011;6627;50.920;12.050;2023-02-28T02:39:42;6.20;;;5.17;;
13122;SDS011;6627;50.920;12.050;2023-02-28T02:42:21;5.93;;;4.80;;
13122;SDS011;6627;50.920;12.050;2023-02-28T02:44:56;7.50;;;5.03;;
13122;SDS011;6627;50.920;12.050;2023-02-28T02:47:32;9.77;;;5.43;;
13122;SDS011;6627;50.920;12.050;2023-02-28T02:50:04;7.83;;;5.03;;
13122;SDS011;6627;50.920;12.050;2023-02-28T02:52:39;7.57;;;5.00;;
13122;SDS011;6627;50.920;12.050;2023-02-28T02:55:12;7.00;;;5.27;;
13122;SDS011;6627;50.920;12.050;2023-02-28T02:57:43;7.60;;;5.23;;
13122;SDS011;6627;50.920;12.050;2023-02-28T03:00:16;6.23;;;5.10;;
13122;SDS011;6627;50.920;12.050;2023-02-28T03:02:50;9.17;;;5.20;;
13122;SDS011;6627;50.920;12.050;2023-02-28T03:05:23;8.40;;;5.10;;
13122;SDS011;6627;50.920;12.050;2023-02-28T03:07:55;7.33;;;5.17;;
13122;SDS011;6627;50.920;12.050;2023-02-28T03:13:19;7.90;;;5.00;;
13122;SDS011;6627;50.920;12.050;2023-02-28T03:16:22;6.47;;;4.83;;
13122;SDS011;6627;50.920;12.050;2023-02-28T03:19:18;7.17;;;5.20;;
13122;SDS011;6627;50.920;12.050;2023-02-28T03:22:11;7.27;;;5.23;;
13122;SDS011;6627;50.920;12.050;2023-02-28T03:24:55;7.13;;;5.70;;
13122;SDS011;6627;50.920;12.050;2023-02-28T03:27:34;7.37;;;5.70;;
13122;SDS011;6627;50.920;12.050;2023-02-28T03:30:09;7.20;;;5.60;;
13122;SDS011;6627;50.920;12.050;2023-02-28T03:32:46;7.40;;;5.67;;
13122;SDS011;6627;50.920;12.050;2023-02-28T03:35:23;11.57;;;5.60;;
13122;SDS011;6627;50.920;12.050;2023-02-28T03:38:00;8.93;;;5.33;;
13122;SDS011;6627;50.920;12.050;2023-02-28T03:40:35;7.43;;;5.83;;
13122;SDS011;6627;50.920;12.050;2023-02-28T03:43:07;8.27;;;5.67;;
13122;SDS011;6627;50.920;12.050;2023-02-28T03:45:42;8.47;;;5.50;;
13122;SDS011;6627;50.920;12.050;2023-02-28T03:48:13;7.93;;;5.47;;
13122;SDS011;6627;50.920;12.050;2023-02-28T03:50:48;8.80;;;5.80;;
13122;SDS011;6627;50.920;12.050;2023-02-28T03:53:27;9.30;;;6.27;;
13122;SDS011;6627;50.920;12.050;2023-02-28T03:55:59;8.97;;;6.10;;
13122;SDS011;6627;50.920;12.050;2023-02-28T03:58:38;7.73;;;5.47;;
13122;SDS011;6627;50.920;12.050;2023-02-28T04:01:15;6.63;;;5.57;;
13122;SDS011;6627;50.920;12.050;2023-02-28T04:03:49;7.23;;;6.23;;
13122;SDS011;6627;50.920;12.050;2023-02-28T04:06:17;9.83;;;6.07;;
13122;SDS011;6627;50.920;12.050;2023-02-28T04:08:49;9.17;;;5.93;;
13122;SDS011;6627;50.920;12.050;2023-02-28T04:11:18;8.73;;;6.60;;
13122;SDS011;6627;50.920;12.050;2023-02-28T04:13:49;9.30;;;6.57;;
13122;SDS011;6627;50.920;12.050;2023-02-28T04:16:17;8.67;;;6.53;;
13122;SDS011;6627;50.920;12.050;2023-02-28T04:18:44;8.00;;;6.23;;
13122;SDS011;6627;50.920;12.050;2023-02-28T04:21:12;8.33;;;5.90;;
13122;SDS011;6627;50.920;12.050;2023-02-28T04:23:40;9.40;;;6.27;;
13122;SDS011;6627;50.920;12.050;2023-02-28T04:26:08;7.87;;;6.00;;
13122;SDS011;6627;50.920;12.050;2023-02-28T04:28:36;8.37;;;6.13;;
13122;SDS011;6627;50.920;12.050;2023-02-28T04:31:04;10.00;;;6.27;;
13122;SDS011;6627;50.920;12.050;2023-02-28T04:33:32;7.70;;;5.70;;
13122;SDS011;6627;50.920;12.050;2023-02-28T04:36:00;10.70;;;7.23;;
13122;SDS011;6627;50.920;12.050;2023-02-28T04:38:29;10.90;;;7.87;;
13122;SDS011;6627;50.920;12.050;2023-02-28T04:40:59;8.47;;;6.90;;
13122;SDS011;6627;50.920;12.050;2023-02-28T04:43:28;10.63;;;6.93;;
13122;SDS011;6627;50.920;12.050;2023-02-28T04:45:57;9.53;;;6.47;;
13122;SDS011;6627;50.920;12.050;2023-02-28T04:48:28;10.20;;;6.97;;
13122;SDS011;6627;50.920;12.050;2023-02-28T04:50:59;15.83;;;11.90;;
13122;SDS011;6627;50.920;12.050;2023-02-28T04:53:27;13.60;;;9.17;;
13122;SDS011;6627;50.920;12.050;2023-02-28T04:55:55;14.87;;;10.07;;
13122;SDS011;6627;50.920;12.050;2023-02-28T04:58:23;17.30;;;11.03;;
13122;SDS011;6627;50.920;12.050;2023-02-28T05:00:52;20.30;;;13.90;;
13122;SDS011;6627;50.920;12.050;2023-02-28T05:03:20;25.53;;;18.87;;
13122;SDS011;6627;50.920;12.050;2023-02-28T05:05:48;20.50;;;12.73;;
13122;SDS011;6627;50.920;12.050;2023-02-28T05:08:15;17.40;;;12.27;;
13122;SDS011;6627;50.920;12.050;2023-02-28T05:10:42;15.57;;;10.57;;
13122;SDS011;6627;50.920;12.050;2023-02-28T05:13:10;17.90;;;10.87;;
13122;SDS011;6627;50.920;12.050;2023-02-28T05:15:38;13.03;;;9.70;;
13122;SDS011;6627;50.920;12.050;2023-02-28T05:18:08;13.97;;;10.13;;
13122;SDS011;6627;50.920;12.050;2023-02-28T05:20:35;15.30;;;8.97;;
13122;SDS011;6627;50.920;12.050;2023-02-28T05:23:03;14.40;;;8.47;;
13122;SDS011;6627;50.920;12.050;2023-02-28T05:25:30;10.83;;;7.77;;
13122;SDS011;6627;50.920;12.050;2023-02-28T05:27:57;14.93;;;8.20;;
13122;SDS011;6627;50.920;12.050;2023-02-28T05:30:24;13.00;;;7.90;;
13122;SDS011;6627;50.920;12.050;2023-02-28T05:32:51;8.67;;;7.20;;
13122;SDS011;6627;50.920;12.050;2023-02-28T05:35:20;11.73;;;8.00;;
13122;SDS011;6627;50.920;12.050;2023-02-28T05:37:47;10.67;;;7.60;;
13122;SDS011;6627;50.920;12.050;2023-02-28T05:40:14;12.43;;;8.10;;
13122;SDS011;6627;50.920;12.050;2023-02-28T05:42:42;11.17;;;7.17;;
13122;SDS011;6627;50.920;12.050;2023-02-28T05:45:09;10.37;;;7.90;;
13122;SDS011;6627;50.920;12.050;2023-02-28T05:47:37;11.90;;;8.53;;
13122;SDS011;6627;50.920;12.050;2023-02-28T05:50:04;11.10;;;8.27;;
13122;SDS011;6627;50.920;12.050;2023-02-28T05:52:36;11.17;;;8.00;;
13122;SDS011;6627;50.920;12.050;2023-02-28T05:55:04;12.77;;;7.80;;
13122;SDS011;6627;50.920;12.050;2023-02-28T05:57:32;9.63;;;7.50;;
13122;SDS011;6627;50.920;12.050;2023-02-28T05:59:59;10.77;;;7.53;;
13122;SDS011;6627;50.920;12.050;2023-02-28T06:02:26;12.23;;;8.07;;
13122;SDS011;6627;50.920;12.050;2023-02-28T06:04:53;11.60;;;7.87;;
13122;SDS011;6627;50.920;12.050;2023-02-28T06:07:21;11.90;;;7.23;;
13122;SDS011;6627;50.920;12.050;2023-02-28T06:09:50;14.77;;;7.77;;
13122;SDS011;6627;50.920;12.050;2023-02-28T06:12:18;15.30;;;8.17;;
13122;SDS011;6627;50.920;12.050;2023-02-28T06:14:45;11.43;;;8.73;;
13122;SDS011;6627;50.920;12.050;2023-02-28T06:17:12;13.40;;;9.73;;
13122;SDS011;6627;50.920;12.050;2023-02-28T06:19:39;19.43;;;9.80;;
13122;SDS011;6627;50.920;12.050;2023-02-28T06:22:06;13.77;;;9.33;;
13122;SDS011;6627;50.920;12.050;2023-02-28T06:24:34;17.47;;;10.70;;
13122;SDS011;6627;50.920;12.050;2023-02-28T06:27:02;18.30;;;11.67;;
13122;SDS011;6627;50.920;12.050;2023-02-28T06:29:31;18.17;;;11.50;;
13122;SDS011;6627;50.920;12.050;2023-02-28T06:31:59;27.70;;;14.70;;
13122;SDS011;6627;50.920;12.050;2023-02-28T06:34:26;29.70;;;16.63;;
13122;SDS011;6627;50.920;12.050;2023-02-28T06:36:53;26.20;;;15.57;;
13122;SDS011;6627;50.920;12.050;2023-02-28T06:39:20;25.17;;;15.60;;
13122;SDS011;6627;50.920;12.050;2023-02-28T06:41:47;25.63;;;15.50;;
13122;SDS011;6627;50.920;12.050;2023-02-28T06:44:18;22.33;;;13.10;;
13122;SDS011;6627;50.920;12.050;2023-02-28T06:46:45;20.70;;;12.60;;
13122;SDS011;6627;50.920;12.050;2023-02-28T06:49:13;20.47;;;14.47;;
13122;SDS011;6627;50.920;12.050;2023-02-28T06:51:43;20.37;;;13.43;;
13122;SDS011;6627;50.920;12.050;2023-02-28T06:54:12;16.37;;;11.07;;
13122;SDS011;6627;50.920;12.050;2023-02-28T06:56:40;15.53;;;11.13;;
13122;SDS011;6627;50.920;12.050;2023-02-28T06:59:07;15.20;;;9.30;;
13122;SDS011;6627;50.920;12.050;2023-02-28T07:01:35;15.30;;;9.13;;
13122;SDS011;6627;50.920;12.050;2023-02-28T07:04:04;13.00;;;8.47;;
13122;SDS011;6627;50.920;12.050;2023-02-28T07:06:33;11.07;;;8.20;;
13122;SDS011;6627;50.920;12.050;2023-02-28T07:09:00;15.23;;;8.83;;
13122;SDS011;6627;50.920;12.050;2023-02-28T07:11:27;11.47;;;7.70;;
13122;SDS011;6627;50.920;12.050;2023-02-28T07:13:55;11.07;;;8.50;;
13122;SDS011;6627;50.920;12.050;2023-02-28T07:16:24;11.83;;;8.73;;
13122;SDS011;6627;50.920;12.050;2023-02-28T07:18:53;14.20;;;8.80;;
13122;SDS011;6627;50.920;12.050;2023-02-28T07:21:21;12.03;;;8.30;;
13122;SDS011;6627;50.920;12.050;2023-02-28T07:23:48;16.10;;;9.27;;
13122;SDS011;6627;50.920;12.050;2023-02-28T07:26:17;23.33;;;14.90;;
13122;SDS011;6627;50.920;12.050;2023-02-28T07:28:46;24.27;;;14.83;;
13122;SDS011;6627;50.920;12.050;2023-02-28T07:31:14;22.63;;;14.90;;
13122;SDS011;6627;50.920;12.050;2023-02-28T07:33:43;18.30;;;11.23;;
13122;SDS011;6627;50.920;12.050;2023-02-28T07:36:13;13.40;;;9.83;;
13122;SDS011;6627;50.920;12.050;2023-02-28T07:38:43;13.30;;;9.20;;
13122;SDS011;6627;50.920;12.050;2023-02-28T07:41:13;12.03;;;8.10;;
13122;SDS011;6627;50.920;12.050;2023-02-28T07:43:41;12.77;;;7.30;;
13122;SDS011;6627;50.920;12.050;2023-02-28T07:46:10;10.50;;;7.53;;
13122;SDS011;6627;50.920;12.050;2023-02-28T07:48:41;11.97;;;7.30;;
13122;SDS011;6627;50.920;12.050;2023-02-28T07:51:08;11.20;;;7.57;;
13122;SDS011;6627;50.920;12.050;2023-02-28T07:53:38;9.07;;;7.40;;
13122;SDS011;6627;50.920;12.050;2023-02-28T07:56:05;14.03;;;8.30;;
13122;SDS011;6627;50.920;12.050;2023-02-28T07:58:33;15.90;;;9.40;;
13122;SDS011;6627;50.920;12.050;2023-02-28T08:01:05;13.43;;;8.67;;
13122;SDS011;6627;50.920;12.050;2023-02-28T08:03:33;11.00;;;7.67;;
13122;SDS011;6627;50.920;12.050;2023-02-28T08:06:01;12.27;;;7.80;;
13122;SDS011;6627;50.920;12.050;2023-02-28T08:08:29;12.80;;;8.40;;
13122;SDS011;6627;50.920;12.050;2023-02-28T08:10:59;12.20;;;7.90;;
13122;SDS011;6627;50.920;12.050;2023-02-28T08:13:27;12.63;;;7.53;;
13122;SDS011;6627;50.920;12.050;2023-02-28T08:15:56;11.73;;;8.03;;
13122;SDS011;6627;50.920;12.050;2023-02-28T08:18:24;10.43;;;7.63;;
13122;SDS011;6627;50.920;12.050;2023-02-28T08:20:51;13.53;;;7.90;;
13122;SDS011;6627;50.920;12.050;2023-02-28T08:23:18;11.77;;;7.80;;
13122;SDS011;6627;50.920;12.050;2023-02-28T08:25:52;10.97;;;7.60;;
13122;SDS011;6627;50.920;12.050;2023-02-28T08:28:22;10.73;;;7.70;;
13122;SDS011;6627;50.920;12.050;2023-02-28T08:30:49;13.30;;;7.13;;
13122;SDS011;6627;50.920;12.050;2023-02-28T08:33:16;12.73;;;7.53;;
13122;SDS011;6627;50.920;12.050;2023-02-28T08:35:44;11.87;;;7.67;;
13122;SDS011;6627;50.920;12.050;2023-02-28T08:38:12;10.17;;;7.17;;
13122;SDS011;6627;50.920;12.050;2023-02-28T08:40:39;11.43;;;7.97;;
13122;SDS011;6627;50.920;12.050;2023-02-28T08:43:08;11.27;;;7.40;;
13122;SDS011;6627;50.920;12.050;2023-02-28T08:45:36;12.93;;;8.47;;
13122;SDS011;6627;50.920;12.050;2023-02-28T08:48:03;11.90;;;7.47;;
13122;SDS011;6627;50.920;12.050;2023-02-28T08:50:31;11.47;;;7.80;;
13122;SDS011;6627;50.920;12.050;2023-02-28T08:52:58;9.70;;;7.57;;
13122;SDS011;6627;50.920;12.050;2023-02-28T08:55:26;12.43;;;7.97;;
13122;SDS011;6627;50.920;12.050;2023-02-28T08:57:53;11.53;;;7.60;;
13122;SDS011;6627;50.920;12.050;2023-02-28T09:00:20;10.43;;;7.53;;
13122;SDS011;6627;50.920;12.050;2023-02-28T09:02:50;11.17;;;7.30;;
13122;SDS011;6627;50.920;12.050;2023-02-28T09:05:17;10.83;;;7.77;;
13122;SDS011;6627;50.920;12.050;2023-02-28T09:07:44;10.20;;;7.53;;
13122;SDS011;6627;50.920;12.050;2023-02-28T09:10:11;13.17;;;7.73;;
13122;SDS011;6627;50.920;12.050;2023-02-28T09:12:39;14.03;;;7.67;;
13122;SDS011;6627;50.920;12.050;2023-02-28T09:15:06;11.40;;;7.50;;
13122;SDS011;6627;50.920;12.050;2023-02-28T09:17:35;11.77;;;8.03;;
13122;SDS011;6627;50.920;12.050;2023-02-28T09:20:04;10.30;;;7.17;;
13122;SDS011;6627;50.920;12.050;2023-02-28T09:22:33;13.23;;;8.00;;
13122;SDS011;6627;50.920;12.050;2023-02-28T09:25:00;10.13;;;7.53;;
13122;SDS011;6627;50.920;12.050;2023-02-28T09:27:29;9.47;;;7.37;;
13122;SDS011;6627;50.920;12.050;2023-02-28T09:29:56;11.73;;;7.73;;
13122;SDS011;6627;50.920;12.050;2023-02-28T09:32:23;9.63;;;7.03;;
13122;SDS011;6627;50.920;12.050;2023-02-28T09:34:50;11.90;;;7.33;;
13122;SDS011;6627;50.920;12.050;2023-02-28T09:37:19;10.20;;;7.13;;
13122;SDS011;6627;50.920;12.050;2023-02-28T09:39:46;9.67;;;7.30;;
13122;SDS011;6627;50.920;12.050;2023-02-28T09:42:17;10.93;;;6.83;;
13122;SDS011;6627;50.920;12.050;2023-02-28T09:44:51;15.00;;;7.67;;
13122;SDS011;6627;50.920;12.050;2023-02-28T09:47:21;9.17;;;6.97;;
13122;SDS011;6627;50.920;12.050;2023-02-28T09:49:59;11.30;;;7.87;;
13122;SDS011;6627;50.920;12.050;2023-02-28T09:52:39;15.70;;;8.03;;
13122;SDS011;6627;50.920;12.050;2023-02-28T09:55:15;9.73;;;6.93;;
13122;SDS011;6627;50.920;12.050;2023-02-28T09:57:48;11.23;;;8.17;;
13122;SDS011;6627;50.920;12.050;2023-02-28T10:00:19;11.07;;;7.50;;
13122;SDS011;6627;50.920;12.050;2023-02-28T10:03:03;12.10;;;7.77;;
13122;SDS011;6627;50.920;12.050;2023-02-28T10:05:52;9.47;;;6.97;;
13122;SDS011;6627;50.920;12.050;2023-02-28T10:08:31;15.17;;;8.63;;
13122;SDS011;6627;50.920;12.050;2023-02-28T10:11:07;10.87;;;7.73;;
13122;SDS011;6627;50.920;12.050;2023-02-28T10:13:41;13.47;;;7.97;;
13122;SDS011;6627;50.920;12.050;2023-02-28T10:16:22;12.10;;;7.77;;
13122;SDS011;6627;50.920;12.050;2023-02-28T10:18:59;10.97;;;8.13;;
13122;SDS011;6627;50.920;12.050;2023-02-28T10:21:34;13.40;;;7.77;;
13122;SDS011;6627;50.920;12.050;2023-02-28T10:24:15;11.00;;;7.33;;
13122;SDS011;6627;50.920;12.050;2023-02-28T10:26:49;8.87;;;6.67;;
13122;SDS011;6627;50.920;12.050;2023-02-28T10:29:32;8.43;;;5.73;;
13122;SDS011;6627;50.920;12.050;2023-02-28T10:32:01;8.30;;;5.83;;
13122;SDS011;6627;50.920;12.050;2023-02-28T10:34:30;9.60;;;6.53;;
13122;SDS011;6627;50.920;12.050;2023-02-28T10:36:57;13.37;;;6.40;;
13122;SDS011;6627;50.920;12.050;2023-02-28T10:39:37;9.17;;;6.47;;
13122;SDS011;6627;50.920;12.050;2023-02-28T10:42:21;9.00;;;6.87;;
13122;SDS011;6627;50.920;12.050;2023-02-28T10:45:05;7.80;;;5.90;;
13122;SDS011;6627;50.920;12.050;2023-02-28T10:47:41;8.27;;;5.97;;
13122;SDS011;6627;50.920;12.050;2023-02-28T10:50:29;8.23;;;5.73;;
13122;SDS011;6627;50.920;12.050;2023-02-28T10:53:28;9.07;;;6.00;;
13122;SDS011;6627;50.920;12.050;2023-02-28T10:56:02;9.33;;;6.10;;
13122;SDS011;6627;50.920;12.050;2023-02-28T10:58:41;13.03;;;6.53;;
13122;SDS011;6627;50.920;12.050;2023-02-28T11:01:15;11.30;;;7.30;;
13122;SDS011;6627;50.920;12.050;2023-02-28T11:03:46;10.73;;;6.23;;
13122;SDS011;6627;50.920;12.050;2023-02-28T11:06:15;7.90;;;4.83;;
13122;SDS011;6627;50.920;12.050;2023-02-28T11:08:48;9.10;;;6.47;;
13122;SDS011;6627;50.920;12.050;2023-02-28T11:11:20;10.53;;;6.40;;
13122;SDS011;6627;50.920;12.050;2023-02-28T11:13:51;9.30;;;6.80;;
13122;SDS011;6627;50.920;12.050;2023-02-28T11:16:29;10.63;;;7.03;;
13122;SDS011;6627;50.920;12.050;2023-02-28T11:19:01;10.53;;;6.50;;
13122;SDS011;6627;50.920;12.050;2023-02-28T11:21:31;8.30;;;6.53;;
13122;SDS011;6627;50.920;12.050;2023-02-28T11:24:06;9.30;;;6.60;;
13122;SDS011;6627;50.920;12.050;2023-02-28T11:26:49;8.47;;;6.13;;
13122;SDS011;6627;50.920;12.050;2023-02-28T11:29:18;10.83;;;6.67;;
13122;SDS011;6627;50.920;12.050;2023-02-28T11:32:01;7.97;;;6.50;;
13122;SDS011;6627;50.920;12.050;2023-02-28T11:34:37;9.07;;;6.30;;
13122;SDS011;6627;50.920;12.050;2023-02-28T11:37:09;11.40;;;6.47;;
13122;SDS011;6627;50.920;12.050;2023-02-28T11:39:40;8.73;;;6.50;;
13122;SDS011;6627;50.920;12.050;2023-02-28T11:45:18;9.83;;;6.90;;
13122;SDS011;6627;50.920;12.050;2023-02-28T11:48:04;10.20;;;7.10;;
13122;SDS011;6627;50.920;12.050;2023-02-28T11:50:49;9.70;;;6.40;;
13122;SDS011;6627;50.920;12.050;2023-02-28T11:53:37;9.63;;;7.33;;
13122;SDS011;6627;50.920;12.050;2023-02-28T11:56:47;12.30;;;7.23;;
13122;SDS011;6627;50.920;12.050;2023-02-28T11:59:28;8.20;;;6.90;;
13122;SDS011;6627;50.920;12.050;2023-02-28T12:02:24;10.90;;;6.70;;
13122;SDS011;6627;50.920;12.050;2023-02-28T12:05:03;10.60;;;6.80;;
13122;SDS011;6627;50.920;12.050;2023-02-28T12:07:58;11.47;;;7.30;;
13122;SDS011;6627;50.920;12.050;2023-02-28T12:11:04;14.43;;;8.50;;
13122;SDS011;6627;50.920;12.050;2023-02-28T12:13:46;10.77;;;7.50;;
13122;SDS011;6627;50.920;12.050;2023-02-28T12:16:43;7.93;;;6.37;;
13122;SDS011;6627;50.920;12.050;2023-02-28T12:19:25;9.57;;;7.27;;
13122;SDS011;6627;50.920;12.050;2023-02-28T12:25:02;12.37;;;7.27;;
13122;SDS011;6627;50.920;12.050;2023-02-28T12:28:10;11.93;;;7.70;;
13122;SDS011;6627;50.920;12.050;2023-02-28T12:30:44;8.77;;;6.93;;
13122;SDS011;6627;50.920;12.050;2023-02-28T12:33:22;11.30;;;7.90;;
13122;SDS011;6627;50.920;12.050;2023-02-28T12:36:00;14.17;;;8.30;;
13122;SDS011;6627;50.920;12.050;2023-02-28T12:38:38;13.30;;;8.00;;
13122;SDS011;6627;50.920;12.050;2023-02-28T12:41:12;12.60;;;7.73;;
13122;SDS011;6627;50.920;12.050;2023-02-28T12:43:46;10.43;;;7.67;;
13122;SDS011;6627;50.920;12.050;2023-02-28T12:46:23;11.47;;;8.80;;
13122;SDS011;6627;50.920;12.050;2023-02-28T12:48:58;14.90;;;8.80;;
13122;SDS011;6627;50.920;12.050;2023-02-28T12:51:32;11.27;;;8.50;;
13122;SDS011;6627;50.920;12.050;2023-02-28T12:54:08;15.37;;;11.37;;
13122;SDS011;6627;50.920;12.050;2023-02-28T12:56:47;16.20;;;8.83;;
13122;SDS011;6627;50.920;12.050;2023-02-28T12:59:31;10.83;;;7.87;;
13122;SDS011;6627;50.920;12.050;2023-02-28T13:02:18;9.23;;;7.57;;
13122;SDS011;6627;50.920;12.050;2023-02-28T13:05:29;10.47;;;8.20;;
13122;SDS011;6627;50.920;12.050;2023-02-28T13:08:23;10.57;;;7.90;;
13122;SDS011;6627;50.920;12.050;2023-02-28T13:11:28;12.70;;;8.43;;
13122;SDS011;6627;50.920;12.050;2023-02-28T13:13:59;13.37;;;9.50;;
13122;SDS011;6627;50.920;12.050;2023-02-28T13:19:21;10.23;;;8.27;;
13122;SDS011;6627;50.920;12.050;2023-02-28T13:21:53;11.93;;;8.00;;
13122;SDS011;6627;50.920;12.050;2023-02-28T13:27:22;12.07;;;8.60;;
13122;SDS011;6627;50.920;12.050;2023-02-28T13:33:24;88.43;;;36.57;;
13122;SDS011;6627;50.920;12.050;2023-02-28T13:38:53;11.37;;;9.20;;
13122;SDS011;6627;50.920;12.050;2023-02-28T13:41:44;10.67;;;8.33;;
13122;SDS011;6627;50.920;12.050;2023-02-28T13:44:16;11.23;;;8.57;;
13122;SDS011;6627;50.920;12.050;2023-02-28T13:49:51;9.70;;;8.00;;
13122;SDS011;6627;50.920;12.050;2023-02-28T13:52:20;10.27;;;8.00;;
13122;SDS011;6627;50.920;12.050;2023-02-28T13:55:00;11.60;;;8.23;;
13122;SDS011;6627;50.920;12.050;2023-02-28T13:57:55;9.97;;;8.33;;
13122;SDS011;6627;50.920;12.050;2023-02-28T14:00:44;11.73;;;8.40;;
13122;SDS011;6627;50.920;12.050;2023-02-28T14:06:41;10.60;;;8.83;;
13122;SDS011;6627;50.920;12.050;2023-02-28T14:09:18;11.97;;;8.97;;
13122;SDS011;6627;50.920;12.050;2023-02-28T14:11:52;10.07;;;8.20;;
13122;SDS011;6627;50.920;12.050;2023-02-28T14:17:24;13.03;;;8.33;;
13122;SDS011;6627;50.920;12.050;2023-02-28T14:19:52;11.70;;;8.57;;
13122;SDS011;6627;50.920;12.050;2023-02-28T14:22:36;9.60;;;8.60;;
13122;SDS011;6627;50.920;12.050;2023-02-28T14:25:22;12.10;;;9.17;;
13122;SDS011;6627;50.920;12.050;2023-02-28T14:28:04;11.87;;;8.23;;
13122;SDS011;6627;50.920;12.050;2023-02-28T14:30:51;13.03;;;9.20;;
13122;SDS011;6627;50.920;12.050;2023-02-28T14:33:46;11.40;;;8.27;;
13122;SDS011;6627;50.920;12.050;2023-02-28T14:36:31;11.17;;;8.50;;
13122;SDS011;6627;50.920;12.050;2023-02-28T14:39:04;13.50;;;8.90;;
13122;SDS011;6627;50.920;12.050;2023-02-28T14:41:38;12.00;;;8.87;;
13122;SDS011;6627;50.920;12.050;2023-02-28T14:44:16;12.60;;;9.10;;
13122;SDS011;6627;50.920;12.050;2023-02-28T14:46:46;13.33;;;8.87;;
13122;SDS011;6627;50.920;12.050;2023-02-28T14:49:18;13.13;;;8.80;;
13122;SDS011;6627;50.920;12.050;2023-02-28T14:51:50;10.57;;;8.57;;
13122;SDS011;6627;50.920;12.050;2023-02-28T14:54:30;13.57;;;9.60;;
13122;SDS011;6627;50.920;12.050;2023-02-28T14:56:57;10.03;;;9.03;;
13122;SDS011;6627;50.920;12.050;2023-02-28T14:59:27;12.50;;;9.83;;
13122;SDS011;6627;50.920;12.050;2023-02-28T15:04:52;11.20;;;9.10;;
13122;SDS011;6627;50.920;12.050;2023-02-28T15:07:21;9.83;;;8.50;;
13122;SDS011;6627;50.920;12.050;2023-02-28T15:10:07;10.63;;;8.93;;
13122;SDS011;6627;50.920;12.050;2023-02-28T15:12:49;10.93;;;8.63;;
13122;SDS011;6627;50.920;12.050;2023-02-28T15:15:23;11.47;;;9.73;;
13122;SDS011;6627;50.920;12.050;2023-02-28T15:17:57;11.47;;;8.93;;
13122;SDS011;6627;50.920;12.050;2023-02-28T15:20:30;11.17;;;8.60;;
13122;SDS011;6627;50.920;12.050;2023-02-28T15:23:00;14.40;;;9.27;;
13122;SDS011;6627;50.920;12.050;2023-02-28T15:25:28;12.70;;;8.80;;
13122;SDS011;6627;50.920;12.050;2023-02-28T15:27:56;13.43;;;9.60;;
13122;SDS011;6627;50.920;12.050;2023-02-28T15:30:26;12.57;;;9.17;;
13122;SDS011;6627;50.920;12.050;2023-02-28T15:33:03;11.87;;;8.97;;
13122;SDS011;6627;50.920;12.050;2023-02-28T15:35:43;11.93;;;9.23;;
13122;SDS011;6627;50.920;12.050;2023-02-28T15:38:15;12.17;;;9.60;;
13122;SDS011;6627;50.920;12.050;2023-02-28T15:40:50;11.50;;;9.60;;
13122;SDS011;6627;50.920;12.050;2023-02-28T15:43:26;12.20;;;9.50;;
13122;SDS011;6627;50.920;12.050;2023-02-28T15:45:57;11.93;;;9.40;;
13122;SDS011;6627;50.920;12.050;2023-02-28T15:48:28;13.63;;;9.83;;
13122;SDS011;6627;50.920;12.050;2023-02-28T15:51:01;14.53;;;10.33;;